Seligman, AZ (86337)

08:56 AM MST del 28 Aprile 2015 (GMT -0700)
W7RH Westwood Ranch | | Change Station
CLOSE
Current Station
Stazione meteo personale
Location: Ash Fork, AZ
Altitudine: 5912 ft
Stazioni meteo nelle vicinanze

Alt. 5912 ft 35.40 °N, 112.66 °W | Updated 4 minutes ago

Sereno
Sereno
63.3 °F
Sembra 63.3 °F
N
7.8
Vento Variabile Vento da NNE

Oggi
Massima -- | Minima -- °F
--% Possibilità di precip.
Ieri
Massima -- | Minima -- °F
Precip. -- in
5:43 AM 7:14 PM
Gobba a ponente, 74% visible
Pressione 30.33 in
Visibilità 10.0 miglia
Nuvole Sereno
Punto di rugiada 37 °F
Umidità 37%
Piovosità 0.00 in
Spessore del manto nevoso Non disponibile.
Raggi UV 4 fuori da 12
Polline 8.50 fuori da 12
Qualità dell'aria Non disponibile.
Flu Activity Local Activity
METAR KCMR 281535Z AUTO 00000KT 10SM CLR 14/01 A3033 RMK AO2

More Conditions Fewer Conditions

Pressione 30.33 in
Visibilità 10.0 miglia
Nuvole Sereno
Punto di rugiada 37 °F
Umidità 37%
Piovosità 0.00 in
Spessore del manto nevoso Non disponibile.
Raggi UV 4 fuori da 12
Polline 8.50 fuori da 12
Qualità dell'aria Non disponibile.
Flu Activity Local Activity
METAR KCMR 281535Z AUTO 00000KT 10SM CLR 14/01 A3033 RMK AO2

More Conditions Fewer Conditions

10-Day Weather Forecast

Almanac

Astronomia

Apr. 28, 2015 Alba Tramonto
Ora attuale
Crepuscolo civile
Crepuscolo nautico
Crepuscolo astronomico
Luna
Estensione della luce visibile
Lunghezza del giorno
Tomorrow will be .
, % of the Moon is Illuminated

Gli estremi di oggi

State Highs State Lows

Community

WunderPhotos

Upload Photos

1,817,680 foto caricate!

WunderBlogs® & News

Nearby

Qualità dell'aria

  Qualità dell'aria Indice AQ Inquinante
Not available.

Profondità neve

Stazione Profondità Altitudine

Attività sismica

Città  Distanza Mag. Data & Ora
Minimo Magnitudo Mostrato è 2.5.

Temperature delle acque costiere

Località Temperatura

Stations

Stazioni meteo nelle vicinanze

Ubicazione della stazione Temp. Raffreddamento del vento Punto di rugiada Umidità Vento Precip. Alt. Aggiornato Tipo